createdAt,value
2019-03-19T00:00:07.768Z,96035.34
2019-03-19T00:02:34.108Z,96032.58
2019-03-19T00:05:00.410Z,96036.96
2019-03-19T00:07:36.931Z,96037.29
2019-03-19T00:09:54.997Z,96037.63
2019-03-19T00:12:21.349Z,96035.63
2019-03-19T00:14:47.730Z,96042.50
2019-03-19T00:17:14.037Z,96040.52
2019-03-19T00:19:40.385Z,96042.00
2019-03-19T00:22:06.473Z,96044.75
2019-03-19T00:24:32.794Z,96046.22
2019-03-19T00:26:59.062Z,96045.74
2019-03-19T00:29:25.350Z,96047.37
2019-03-19T00:31:51.588Z,96045.91
2019-03-19T00:34:17.961Z,96036.56
2019-03-19T00:36:44.271Z,96046.39
2019-03-19T00:39:10.693Z,96049.64
2019-03-19T00:41:36.939Z,96048.98
2019-03-19T00:44:03.241Z,96044.56
2019-03-19T00:46:29.535Z,96044.08
2019-03-19T00:48:55.883Z,96052.25
2019-03-19T00:51:22.166Z,96046.00
2019-03-19T00:53:48.355Z,96046.52
2019-03-19T00:56:14.703Z,96045.84
2019-03-19T00:58:40.888Z,96052.36
2019-03-19T01:04:03.392Z,96057.09
2019-03-19T01:06:29.635Z,96058.36
2019-03-19T01:08:56.021Z,96053.45
2019-03-19T01:11:22.297Z,96058.02
2019-03-19T01:13:48.629Z,96049.50
2019-03-19T01:16:14.866Z,96052.75
2019-03-19T01:18:41.167Z,96052.91
2019-03-19T01:21:07.461Z,96054.35
2019-03-19T01:23:33.768Z,96059.58
2019-03-19T01:26:00.039Z,96064.14
2019-03-19T01:28:26.387Z,96064.14
2019-03-19T01:30:52.668Z,96061.84
2019-03-19T01:33:18.936Z,96062.80
2019-03-19T01:35:45.235Z,96062.31
2019-03-19T01:38:11.447Z,96060.53
2019-03-19T01:40:39.586Z,96065.09
2019-03-19T01:43:08.807Z,96072.61
2019-03-19T01:45:35.005Z,96073.73
2019-03-19T01:48:01.439Z,96074.29
2019-03-19T01:50:27.618Z,96066.09
2019-03-19T01:52:53.938Z,96069.69
2019-03-19T01:55:20.196Z,96067.23
2019-03-19T01:57:49.199Z,96068.54
2019-03-19T02:00:18.822Z,96076.70
2019-03-19T02:02:45.047Z,96073.88
2019-03-19T02:05:11.222Z,96078.78
2019-03-19T02:07:37.495Z,96078.95
2019-03-19T02:10:09.414Z,96077.69
2019-03-19T02:12:35.723Z,96069.02
2019-03-19T02:15:02.125Z,96073.92
2019-03-19T02:17:28.435Z,96078.32
2019-03-19T02:19:54.719Z,96069.48
2019-03-19T02:22:21.145Z,96071.42
2019-03-19T02:24:47.490Z,96075.98
2019-03-19T02:27:13.667Z,96076.45
2019-03-19T02:29:40.007Z,96071.38
2019-03-19T02:32:06.149Z,96077.56
2019-03-19T02:34:32.534Z,96079.02
2019-03-19T02:36:58.833Z,96100.23
2019-03-19T02:39:25.097Z,96104.73
2019-03-19T02:41:51.432Z,96103.63
2019-03-19T02:44:17.736Z,96101.63
2019-03-19T02:46:44.090Z,96110.42
2019-03-19T02:49:13.132Z,96091.92
2019-03-19T02:51:39.416Z,96117.47
2019-03-19T02:54:05.765Z,96105.08
2019-03-19T02:56:33.943Z,96104.72
2019-03-19T02:59:00.195Z,96115.15
2019-03-19T03:01:26.480Z,96113.31
2019-03-19T03:03:56.323Z,96122.08
2019-03-19T03:06:22.576Z,96124.80
2019-03-19T03:08:48.844Z,96123.73
2019-03-19T03:11:15.102Z,96123.42
2019-03-19T03:13:41.420Z,96126.92
2019-03-19T03:16:07.709Z,96132.02
2019-03-19T03:18:33.891Z,96136.27
2019-03-19T03:21:05.429Z,96135.11
2019-03-19T03:23:31.713Z,96138.05
2019-03-19T03:25:57.885Z,96135.43
2019-03-19T03:28:24.013Z,96145.49
2019-03-19T03:30:50.303Z,96146.12
2019-03-19T03:33:16.597Z,96144.79
2019-03-19T03:35:42.916Z,96147.34
2019-03-19T03:38:10.980Z,96146.81
2019-03-19T03:40:37.255Z,96152.63
2019-03-19T03:43:03.636Z,96147.17
2019-03-19T03:45:29.893Z,96150.10
2019-03-19T03:47:56.082Z,96155.14
2019-03-19T03:50:22.359Z,96161.31
2019-03-19T03:52:48.887Z,96160.74
2019-03-19T03:55:17.610Z,96160.86
2019-03-19T03:57:43.943Z,96170.28
2019-03-19T04:00:15.469Z,96169.27
2019-03-19T04:02:44.658Z,96170.87
2019-03-19T04:05:09.907Z,96172.48
2019-03-19T04:07:36.171Z,96162.56
2019-03-19T04:10:05.375Z,96176.73
2019-03-19T04:15:35.046Z,96172.53
2019-03-19T04:18:01.260Z,96169.13
2019-03-19T04:20:27.435Z,96192.44
2019-03-19T04:22:53.871Z,96193.27
2019-03-19T04:25:20.063Z,96208.55
2019-03-19T04:27:46.299Z,96204.31
2019-03-19T04:30:16.457Z,96203.55
2019-03-19T04:32:42.798Z,96200.22
2019-03-19T04:35:08.994Z,96218.24
2019-03-19T04:37:35.319Z,96227.73
2019-03-19T04:40:01.580Z,96230.95
2019-03-19T04:42:27.896Z,96229.09
2019-03-19T04:44:54.206Z,96226.56
2019-03-19T04:47:20.509Z,96229.52
2019-03-19T04:49:46.881Z,96226.56
2019-03-19T04:52:13.230Z,96239.31
2019-03-19T04:54:39.821Z,96240.77
2019-03-19T04:57:06.213Z,96238.77
2019-03-19T04:59:32.596Z,96238.23
2019-03-19T05:01:58.878Z,96239.86
2019-03-19T05:04:25.828Z,96241.86
2019-03-19T05:06:51.871Z,96239.80
2019-03-19T05:09:18.119Z,96234.67
2019-03-19T05:11:44.402Z,96243.98
2019-03-19T05:14:12.572Z,96249.55
2019-03-19T05:16:38.774Z,96247.89
2019-03-19T05:19:04.924Z,96246.87
2019-03-19T05:21:31.215Z,96245.56
2019-03-19T05:23:57.528Z,96255.38
2019-03-19T05:26:23.671Z,96250.86
2019-03-19T05:28:50.024Z,96262.98
2019-03-19T05:31:16.244Z,96258.58
2019-03-19T05:33:42.542Z,96256.88
2019-03-19T05:36:08.815Z,96267.45
2019-03-19T05:38:35.114Z,96266.75
2019-03-19T05:41:01.517Z,96264.13
2019-03-19T05:43:27.824Z,96265.10
2019-03-19T05:45:54.001Z,96272.03
2019-03-19T05:48:20.287Z,96272.72
2019-03-19T05:50:46.630Z,96271.83
2019-03-19T05:53:14.446Z,96278.14
2019-03-19T05:55:49.209Z,96282.79
2019-03-19T05:58:15.529Z,96287.53
2019-03-19T06:00:41.676Z,96293.55
2019-03-19T06:03:07.952Z,96303.09
2019-03-19T06:05:34.211Z,96308.52
2019-03-19T06:08:00.374Z,96308.79
2019-03-19T06:10:26.622Z,96306.67
2019-03-19T06:12:52.881Z,96305.63
2019-03-19T06:15:19.138Z,96306.04
2019-03-19T06:17:45.399Z,96307.13
2019-03-19T06:20:13.078Z,96314.39
2019-03-19T06:22:39.448Z,96306.96
2019-03-19T06:25:07.465Z,96313.81
2019-03-19T06:27:33.830Z,96307.37
2019-03-19T06:30:00.334Z,96316.90
2019-03-19T06:32:26.609Z,96316.57
2019-03-19T06:34:52.927Z,96314.65
2019-03-19T06:37:19.262Z,96317.47
2019-03-19T06:39:45.430Z,96316.50
2019-03-19T06:42:13.432Z,96318.48
2019-03-19T06:44:39.681Z,96325.55
2019-03-19T06:47:05.966Z,96326.72
2019-03-19T06:49:32.092Z,96323.49
2019-03-19T06:51:59.285Z,96324.51
2019-03-19T06:54:25.774Z,96324.77
2019-03-19T06:56:51.944Z,96329.98
2019-03-19T06:59:18.241Z,96336.22
2019-03-19T07:01:44.467Z,96331.43
2019-03-19T07:04:13.290Z,96333.49
2019-03-19T07:06:39.523Z,96336.34
2019-03-19T07:09:06.895Z,96335.91
2019-03-19T07:11:33.168Z,96336.30
2019-03-19T07:13:59.403Z,96342.36
2019-03-19T07:16:25.717Z,96340.87
2019-03-19T07:18:51.990Z,96344.53
2019-03-19T07:21:19.391Z,96337.23
2019-03-19T07:23:45.694Z,96335.75
2019-03-19T07:26:12.060Z,96340.67
2019-03-19T07:28:38.500Z,96341.60
2019-03-19T07:31:05.043Z,96343.21
2019-03-19T07:33:31.979Z,96337.69
2019-03-19T07:35:58.344Z,96336.70
2019-03-19T07:38:24.710Z,96342.05
2019-03-19T07:40:51.048Z,96345.53
2019-03-19T07:43:17.436Z,96350.91
2019-03-19T07:45:43.752Z,96352.92
2019-03-19T07:48:12.738Z,96358.95
2019-03-19T07:50:38.943Z,96355.11
2019-03-19T07:53:05.195Z,96356.81
2019-03-19T07:55:31.401Z,96357.61
2019-03-19T07:57:57.564Z,96361.25
2019-03-19T08:00:23.715Z,96365.28
2019-03-19T08:02:53.412Z,96374.83
2019-03-19T08:05:19.562Z,96371.95
2019-03-19T08:07:45.886Z,96377.12
2019-03-19T08:10:18.786Z,96371.81
2019-03-19T08:12:45.528Z,96381.03
2019-03-19T08:15:14.183Z,96378.82
2019-03-19T08:17:42.813Z,96371.02
2019-03-19T08:20:13.008Z,96369.48
2019-03-19T08:22:40.160Z,96371.68
2019-03-19T08:25:14.962Z,96377.12
2019-03-19T08:27:43.331Z,96378.00
2019-03-19T08:30:25.083Z,96379.39
2019-03-19T08:32:51.535Z,96370.25
2019-03-19T08:35:17.503Z,96377.03
2019-03-19T08:37:43.644Z,96375.50
2019-03-19T08:40:12.039Z,96378.84
2019-03-19T08:42:38.418Z,96377.23
2019-03-19T08:45:35.372Z,96379.05
2019-03-19T08:48:37.517Z,96385.14
2019-03-19T08:51:31.819Z,96381.22
2019-03-19T08:53:57.433Z,96392.08
2019-03-19T08:56:32.629Z,96384.88
2019-03-19T08:59:17.139Z,96382.11
2019-03-19T09:03:11.488Z,96392.11
2019-03-19T09:05:52.868Z,96393.09
2019-03-19T09:08:10.093Z,96394.76
2019-03-19T09:10:46.643Z,96390.48
2019-03-19T09:13:13.233Z,96391.82
2019-03-19T09:15:42.762Z,96385.73
2019-03-19T09:18:10.251Z,96395.25
2019-03-19T09:20:44.602Z,96393.80
2019-03-19T09:23:33.453Z,96390.66
2019-03-19T09:26:10.533Z,96389.85
2019-03-19T09:28:43.053Z,96398.08
2019-03-19T09:31:15.608Z,96390.34
2019-03-19T09:33:54.710Z,96383.46
2019-03-19T09:39:14.336Z,96393.16
2019-03-19T09:41:45.896Z,96388.55
2019-03-19T09:44:15.849Z,96391.83
2019-03-19T09:47:03.239Z,96392.16
2019-03-19T09:49:26.785Z,96388.56
2019-03-19T09:51:52.959Z,96388.23
2019-03-19T09:54:19.142Z,96391.67
2019-03-19T09:56:45.447Z,96389.20
2019-03-19T09:59:11.498Z,96385.73
2019-03-19T10:01:37.778Z,96380.66
2019-03-19T10:04:04.052Z,96384.41
2019-03-19T10:06:30.310Z,96385.20
2019-03-19T10:08:58.413Z,96390.61
2019-03-19T10:11:24.806Z,96393.06
2019-03-19T10:13:51.089Z,96394.70
2019-03-19T10:16:17.443Z,96395.84
2019-03-19T10:18:43.978Z,96404.53
2019-03-19T10:21:10.279Z,96400.44
2019-03-19T10:23:36.712Z,96407.19
2019-03-19T10:26:04.581Z,96401.30
2019-03-19T10:28:30.863Z,96386.49
2019-03-19T10:30:57.206Z,96397.19
2019-03-19T10:33:23.499Z,96402.44
2019-03-19T10:35:51.726Z,96408.21
2019-03-19T10:38:18.034Z,96404.92
2019-03-19T10:40:44.360Z,96406.06
2019-03-19T10:43:10.684Z,96403.30
2019-03-19T10:45:41.881Z,96404.41
2019-03-19T10:48:08.105Z,96393.72
2019-03-19T10:50:34.370Z,96388.78
2019-03-19T10:53:00.686Z,96403.38
2019-03-19T10:55:27.002Z,96402.73
2019-03-19T10:57:53.367Z,96398.13
2019-03-19T11:00:23.380Z,96396.33
2019-03-19T11:02:49.691Z,96396.98
2019-03-19T11:05:16.351Z,96396.98
2019-03-19T11:07:42.867Z,96407.64
2019-03-19T11:10:10.716Z,96398.75
2019-03-19T11:12:36.986Z,96397.26
2019-03-19T11:15:06.663Z,96388.87
2019-03-19T11:17:32.781Z,96391.16
2019-03-19T11:19:59.029Z,96391.33
2019-03-19T11:22:25.288Z,96376.16
2019-03-19T11:24:51.526Z,96390.98
2019-03-19T11:27:17.672Z,96390.63
2019-03-19T11:29:43.890Z,96395.70
2019-03-19T11:32:10.220Z,96389.91
2019-03-19T11:34:36.583Z,96382.97
2019-03-19T11:37:02.866Z,96388.58
2019-03-19T11:39:32.126Z,96381.47
2019-03-19T11:41:58.460Z,96386.91
2019-03-19T11:44:27.413Z,96386.56
2019-03-19T11:46:53.824Z,96388.53
2019-03-19T11:49:20.143Z,96393.50
2019-03-19T11:51:46.441Z,96394.38
2019-03-19T11:54:12.749Z,96379.07
2019-03-19T11:56:38.923Z,96383.67
2019-03-19T11:59:10.185Z,96389.95
2019-03-19T12:01:41.305Z,96384.16
2019-03-19T12:04:42.718Z,96386.31
2019-03-19T12:07:15.358Z,96385.30
2019-03-19T12:10:14.254Z,96382.36
2019-03-19T12:12:40.555Z,96380.39
2019-03-19T12:15:11.390Z,96384.69
2019-03-19T12:17:37.852Z,96382.02
2019-03-19T12:20:07.011Z,96379.07
2019-03-19T12:22:33.219Z,96377.57
2019-03-19T12:25:38.864Z,96378.05
2019-03-19T12:28:05.865Z,96379.32
2019-03-19T12:33:40.304Z,96382.01
2019-03-19T12:35:59.949Z,96384.95
2019-03-19T12:38:33.248Z,96384.95
2019-03-19T12:40:57.206Z,96379.98
2019-03-19T12:43:23.402Z,96384.76
2019-03-19T12:45:49.713Z,96377.03
2019-03-19T12:48:16.000Z,96380.59
2019-03-19T12:50:42.265Z,96382.44
2019-03-19T12:53:08.550Z,96377.33
2019-03-19T12:55:34.958Z,96389.14
2019-03-19T12:58:01.638Z,96382.55
2019-03-19T13:00:34.080Z,96378.23
2019-03-19T13:02:56.491Z,96391.95
2019-03-19T13:05:22.920Z,96395.11
2019-03-19T13:07:49.492Z,96394.81
2019-03-19T13:10:20.651Z,96392.84
2019-03-19T13:12:47.057Z,96392.17
2019-03-19T13:15:14.912Z,96401.05
2019-03-19T13:17:42.265Z,96395.96
2019-03-19T13:20:15.295Z,96395.16
2019-03-19T13:22:41.533Z,96399.25
2019-03-19T13:25:23.796Z,96403.20
2019-03-19T13:27:50.000Z,96404.86
2019-03-19T13:30:20.282Z,96414.27
2019-03-19T13:32:46.301Z,96412.98
2019-03-19T13:35:12.632Z,96412.81
2019-03-19T13:37:40.771Z,96411.32
2019-03-19T13:40:10.257Z,96410.79
2019-03-19T13:42:36.407Z,96419.48
2019-03-19T13:45:05.476Z,96412.94
2019-03-19T13:47:31.521Z,96425.45
2019-03-19T13:49:57.804Z,96426.45
2019-03-19T13:52:24.079Z,96425.48
2019-03-19T13:54:50.150Z,96423.16
2019-03-19T13:57:16.452Z,96426.45
2019-03-19T13:59:42.496Z,96428.08
2019-03-19T14:02:08.820Z,96432.69
2019-03-19T14:04:34.981Z,96428.08
2019-03-19T14:07:01.219Z,96430.05
2019-03-19T14:09:27.376Z,96409.70
2019-03-19T14:11:53.407Z,96428.59
2019-03-19T14:14:19.610Z,96425.66
2019-03-19T14:16:45.951Z,96426.80
2019-03-19T14:19:12.101Z,96418.25
2019-03-19T14:21:38.084Z,96430.75
2019-03-19T14:24:06.404Z,96430.75
2019-03-19T14:26:34.508Z,96409.70
2019-03-19T14:29:03.832Z,96430.89
2019-03-19T14:31:29.916Z,96433.03
2019-03-19T14:33:56.233Z,96443.52
2019-03-19T14:36:22.268Z,96439.26
2019-03-19T14:38:48.585Z,96439.26
2019-03-19T14:41:14.726Z,96442.08
2019-03-19T14:43:40.772Z,96443.60
2019-03-19T14:46:06.918Z,96434.87
2019-03-19T14:48:32.803Z,96441.59
2019-03-19T14:51:02.267Z,96438.91
2019-03-19T14:53:28.410Z,96447.65
2019-03-19T14:55:54.772Z,96442.55
2019-03-19T14:58:21.161Z,96446.50
2019-03-19T15:00:47.474Z,96441.90
2019-03-19T15:03:15.771Z,96450.80
2019-03-19T15:05:42.078Z,96449.97
2019-03-19T15:08:08.155Z,96458.05
2019-03-19T15:10:34.299Z,96458.39
2019-03-19T15:13:00.233Z,96452.64
2019-03-19T15:15:26.272Z,96456.77
2019-03-19T15:17:52.213Z,96457.08
2019-03-19T15:20:22.671Z,96469.23
2019-03-19T15:22:48.747Z,96467.28
2019-03-19T15:25:14.695Z,96476.50
2019-03-19T15:27:40.601Z,96474.70
2019-03-19T15:30:09.856Z,96479.13
2019-03-19T15:32:35.804Z,96481.30
2019-03-19T15:35:01.935Z,96478.50
2019-03-19T15:37:27.925Z,96479.79
2019-03-19T15:39:53.853Z,96477.16
2019-03-19T15:42:19.877Z,96486.71
2019-03-19T15:44:45.800Z,96484.91
2019-03-19T15:47:11.707Z,96490.14
2019-03-19T15:49:38.584Z,96491.31
2019-03-19T15:52:04.714Z,96493.77
2019-03-19T15:54:30.642Z,96492.63
2019-03-19T15:56:56.572Z,96503.15
2019-03-19T15:59:22.482Z,96505.80
2019-03-19T16:01:48.428Z,96508.27
2019-03-19T16:04:14.455Z,96507.92
2019-03-19T16:06:40.395Z,96516.98
2019-03-19T16:09:07.020Z,96516.00
2019-03-19T16:11:34.170Z,96517.00
2019-03-19T16:14:02.114Z,96523.58
2019-03-19T16:16:28.112Z,96524.22
2019-03-19T16:18:54.138Z,96524.72
2019-03-19T16:21:20.084Z,96526.84
2019-03-19T16:23:46.020Z,96525.36
2019-03-19T16:26:11.980Z,96533.73
2019-03-19T16:28:37.976Z,96534.90
2019-03-19T16:31:03.970Z,96537.20
2019-03-19T16:33:29.926Z,96540.66
2019-03-19T16:35:55.842Z,96549.70
2019-03-19T16:38:21.835Z,96552.16
2019-03-19T16:40:47.746Z,96556.93
2019-03-19T16:43:13.666Z,96556.77
2019-03-19T16:45:39.592Z,96565.98
2019-03-19T16:48:05.605Z,96563.02
2019-03-19T16:50:31.618Z,96564.34
2019-03-19T16:52:58.023Z,96566.29
2019-03-19T16:55:24.061Z,96573.55
2019-03-19T16:57:49.996Z,96585.69
2019-03-19T17:00:21.674Z,96587.17
2019-03-19T17:02:47.686Z,96588.98
2019-03-19T17:05:15.567Z,96592.28
2019-03-19T17:07:43.704Z,96595.24
2019-03-19T17:10:15.353Z,96596.22
2019-03-19T17:12:42.084Z,96593.42
2019-03-19T17:15:10.735Z,96603.59
2019-03-19T17:17:36.776Z,96600.17
2019-03-19T17:20:05.816Z,96609.37
2019-03-19T17:22:32.073Z,96611.83
2019-03-19T17:24:59.920Z,96619.22
2019-03-19T17:27:25.870Z,96615.59
2019-03-19T17:29:52.216Z,96623.61
2019-03-19T17:32:18.845Z,96621.22
2019-03-19T17:34:45.098Z,96628.41
2019-03-19T17:37:11.911Z,96643.66
2019-03-19T17:39:38.217Z,96646.27
2019-03-19T17:42:06.283Z,96648.41
2019-03-19T17:44:32.571Z,96647.58
2019-03-19T17:46:58.948Z,96658.40
2019-03-19T17:49:25.329Z,96656.09
2019-03-19T17:51:51.747Z,96662.66
2019-03-19T17:54:20.669Z,96661.63
2019-03-19T17:56:50.663Z,96662.87
2019-03-19T17:59:19.665Z,96665.46
2019-03-19T18:01:46.011Z,96667.22
2019-03-19T18:04:12.406Z,96669.83
2019-03-19T18:06:38.675Z,96676.20
2019-03-19T18:09:05.956Z,96676.99
2019-03-19T18:11:35.915Z,96676.83
2019-03-19T18:14:01.956Z,96674.12
2019-03-19T18:16:27.892Z,96669.50
2019-03-19T18:18:53.828Z,96677.95
2019-03-19T18:21:19.736Z,96676.59
2019-03-19T18:23:45.658Z,96677.43
2019-03-19T18:26:11.584Z,96676.12
2019-03-19T18:28:37.514Z,96678.53
2019-03-19T18:31:03.433Z,96682.77
2019-03-19T18:33:29.441Z,96685.98
2019-03-19T18:35:56.594Z,96684.67
2019-03-19T18:38:22.908Z,96684.34
2019-03-19T18:40:48.850Z,96691.05
2019-03-19T18:43:14.769Z,96685.97
2019-03-19T18:45:40.680Z,96693.84
2019-03-19T18:48:06.615Z,96683.66
2019-03-19T18:50:32.545Z,96692.37
2019-03-19T18:52:58.481Z,96687.23
2019-03-19T18:55:24.402Z,96695.42
2019-03-19T18:57:50.341Z,96701.50
2019-03-19T19:00:21.896Z,96703.95
2019-03-19T19:02:50.312Z,96706.84
2019-03-19T19:05:19.954Z,96701.75
2019-03-19T19:07:46.111Z,96703.17
2019-03-19T19:10:13.173Z,96701.84
2019-03-19T19:12:39.151Z,96705.30
2019-03-19T19:15:10.917Z,96710.02
2019-03-19T19:17:36.861Z,96708.72
2019-03-19T19:20:04.910Z,96713.25
2019-03-19T19:22:30.861Z,96712.09
2019-03-19T19:24:56.867Z,96718.14
2019-03-19T19:27:22.841Z,96724.42
2019-03-19T19:29:48.870Z,96721.44
2019-03-19T19:32:14.797Z,96728.09
2019-03-19T19:35:18.048Z,96727.71
2019-03-19T19:37:43.985Z,96744.57
2019-03-19T19:40:14.989Z,96741.52
2019-03-19T19:42:40.976Z,96739.81
2019-03-19T19:45:09.026Z,96736.81
2019-03-19T19:47:35.005Z,96740.98
2019-03-19T19:50:01.033Z,96739.42
2019-03-19T19:52:27.013Z,96743.50
2019-03-19T19:54:52.932Z,96741.18
2019-03-19T19:57:18.855Z,96752.43
2019-03-19T19:59:44.915Z,96754.18
2019-03-19T20:02:10.919Z,96756.44
2019-03-19T20:04:37.044Z,96756.91
2019-03-19T20:07:03.076Z,96755.75
2019-03-19T20:09:29.004Z,96764.73
2019-03-19T20:11:54.921Z,96770.13
2019-03-19T20:14:21.108Z,96771.69
2019-03-19T20:16:47.113Z,96771.80
2019-03-19T20:19:13.056Z,96775.52
2019-03-19T20:21:38.988Z,96775.80
2019-03-19T20:24:04.922Z,96775.11
2019-03-19T20:26:30.867Z,96778.09
2019-03-19T20:28:56.781Z,96776.72
2019-03-19T20:31:22.716Z,96779.27
2019-03-19T20:33:48.637Z,96779.88
2019-03-19T20:36:14.559Z,96777.91
2019-03-19T20:38:40.504Z,96780.86
2019-03-19T20:41:06.438Z,96782.64
2019-03-19T20:43:32.385Z,96786.86
2019-03-19T20:45:58.359Z,96793.55
2019-03-19T20:48:24.278Z,96791.91
2019-03-19T20:50:50.216Z,96788.60
2019-03-19T20:53:16.132Z,96798.45
2019-03-19T20:55:42.072Z,96797.00
2019-03-19T20:58:07.986Z,96792.16
2019-03-19T21:00:33.931Z,96795.76
2019-03-19T21:03:01.575Z,96793.77
2019-03-19T21:05:27.543Z,96790.59
2019-03-19T21:07:53.580Z,96797.14
2019-03-19T21:10:20.751Z,96794.48
2019-03-19T21:12:47.126Z,96796.59
2019-03-19T21:15:15.053Z,96802.95
2019-03-19T21:17:40.999Z,96803.56
2019-03-19T21:20:14.462Z,96804.39
2019-03-19T21:22:40.501Z,96804.60
2019-03-19T21:25:08.465Z,96804.95
2019-03-19T21:27:34.401Z,96805.23
2019-03-19T21:30:00.603Z,96807.63
2019-03-19T21:32:26.792Z,96814.08
2019-03-19T21:34:52.741Z,96807.13
2019-03-19T21:37:18.681Z,96805.27
2019-03-19T21:39:44.714Z,96806.59
2019-03-19T21:42:10.643Z,96806.59
2019-03-19T21:44:36.554Z,96813.18
2019-03-19T21:47:02.492Z,96813.13
2019-03-19T21:49:28.407Z,96816.13
2019-03-19T21:51:54.327Z,96819.38
2019-03-19T21:54:20.246Z,96821.77
2019-03-19T21:56:46.305Z,96824.80
2019-03-19T21:59:12.243Z,96824.71
2019-03-19T22:01:38.168Z,96820.23
2019-03-19T22:04:04.081Z,96818.73
2019-03-19T22:06:29.997Z,96825.64
2019-03-19T22:08:55.915Z,96830.30
2019-03-19T22:11:21.834Z,96831.33
2019-03-19T22:13:47.761Z,96832.34
2019-03-19T22:16:16.239Z,96829.30
2019-03-19T22:18:42.161Z,96834.43
2019-03-19T22:21:08.091Z,96831.75
2019-03-19T22:23:34.008Z,96838.05
2019-03-19T22:25:59.922Z,96840.23
2019-03-19T22:28:25.854Z,96836.72
2019-03-19T22:30:51.790Z,96834.38
2019-03-19T22:33:17.714Z,96838.90
2019-03-19T22:35:43.648Z,96838.66
2019-03-19T22:38:15.355Z,96833.01
2019-03-19T22:40:37.398Z,96846.94
2019-03-19T22:43:03.321Z,96848.27
2019-03-19T22:45:30.712Z,96850.81
2019-03-19T22:48:00.252Z,96856.50
2019-03-19T22:50:26.175Z,96860.08
2019-03-19T22:52:52.105Z,96863.76
2019-03-19T22:55:28.641Z,96859.77
2019-03-19T22:57:45.962Z,96862.88
2019-03-19T23:00:19.323Z,96866.34
2019-03-19T23:02:45.256Z,96871.45
2019-03-19T23:05:12.709Z,96869.11
2019-03-19T23:07:38.646Z,96864.16
2019-03-19T23:10:04.637Z,96871.27
2019-03-19T23:12:30.561Z,96873.44
2019-03-19T23:14:58.894Z,96872.98
2019-03-19T23:17:24.822Z,96875.86
2019-03-19T23:19:57.456Z,96880.62
2019-03-19T23:22:23.486Z,96880.04
2019-03-19T23:24:49.427Z,96879.59
2019-03-19T23:27:15.352Z,96891.21
2019-03-19T23:29:41.285Z,96887.09
2019-03-19T23:32:07.313Z,96887.09
2019-03-19T23:34:38.480Z,96891.35
2019-03-19T23:37:01.097Z,96900.61
2019-03-19T23:39:27.027Z,96903.12
2019-03-19T23:41:52.955Z,96903.97
2019-03-19T23:44:18.926Z,96909.53
2019-03-19T23:46:44.837Z,96910.58
2019-03-19T23:49:14.807Z,96914.28
2019-03-19T23:51:40.733Z,96915.59
2019-03-19T23:54:06.666Z,96921.18
2019-03-19T23:56:32.679Z,96922.02
2019-03-19T23:58:58.659Z,96923.58
